createdAt,value
2018-06-11T00:01:03.149Z,100.00
2018-06-11T00:03:31.241Z,100.00
2018-06-11T00:05:59.618Z,99.77
2018-06-11T00:08:27.789Z,99.05
2018-06-11T00:10:55.969Z,100.00
2018-06-11T00:13:24.077Z,100.00
2018-06-11T00:15:52.282Z,100.00
2018-06-11T00:18:20.423Z,100.00
2018-06-11T00:20:48.550Z,100.00
2018-06-11T00:23:16.779Z,100.00
2018-06-11T00:25:44.958Z,100.00
2018-06-11T00:28:13.114Z,100.00
2018-06-11T00:30:41.266Z,100.00
2018-06-11T00:33:09.418Z,100.00
2018-06-11T00:35:37.650Z,100.00
2018-06-11T00:38:05.863Z,100.00
2018-06-11T00:40:34.343Z,100.00
2018-06-11T00:43:02.682Z,100.00
2018-06-11T00:45:30.784Z,100.00
2018-06-11T00:47:58.928Z,100.00
2018-06-11T00:50:27.033Z,100.00
2018-06-11T00:52:55.141Z,100.00
2018-06-11T00:55:24.294Z,100.00
2018-06-11T00:57:52.774Z,100.00
2018-06-11T01:00:20.914Z,100.00
2018-06-11T01:02:49.049Z,100.00
2018-06-11T01:05:17.198Z,100.00
2018-06-11T01:07:45.378Z,100.00
2018-06-11T01:10:13.611Z,100.00
2018-06-11T01:12:41.902Z,100.00
2018-06-11T01:15:10.039Z,100.00
2018-06-11T01:17:38.157Z,100.00
2018-06-11T01:20:06.436Z,100.00
2018-06-11T01:22:34.577Z,100.00
2018-06-11T01:25:02.704Z,100.00
2018-06-11T01:27:30.821Z,100.00
2018-06-11T01:29:58.931Z,100.00
2018-06-11T01:32:27.096Z,100.00
2018-06-11T01:34:55.281Z,100.00
2018-06-11T01:37:23.450Z,100.00
2018-06-11T01:39:51.558Z,100.00
2018-06-11T01:42:19.663Z,100.00
2018-06-11T01:44:47.785Z,100.00
2018-06-11T01:47:15.926Z,100.00
2018-06-11T01:49:44.179Z,100.00
2018-06-11T01:52:12.297Z,100.00
2018-06-11T01:54:40.563Z,100.00
2018-06-11T01:57:09.029Z,100.00
2018-06-11T01:59:37.146Z,100.00
2018-06-11T02:02:05.342Z,100.00
2018-06-11T02:04:33.498Z,100.00
2018-06-11T02:07:01.734Z,100.00
2018-06-11T02:09:29.992Z,100.00
2018-06-11T02:11:58.183Z,100.00
2018-06-11T02:14:26.420Z,100.00
2018-06-11T02:16:54.538Z,100.00
2018-06-11T02:19:22.686Z,100.00
2018-06-11T02:21:50.895Z,100.00
2018-06-11T02:24:18.974Z,100.00
2018-06-11T02:26:47.197Z,100.00
2018-06-11T02:29:15.423Z,100.00
2018-06-11T02:31:43.630Z,100.00
2018-06-11T02:34:12.485Z,100.00
2018-06-11T02:36:40.669Z,100.00
2018-06-11T02:39:09.651Z,100.00
2018-06-11T02:41:37.747Z,100.00
2018-06-11T02:44:05.867Z,100.00
2018-06-11T02:46:33.965Z,100.00
2018-06-11T02:49:02.202Z,100.00
2018-06-11T02:51:30.407Z,100.00
2018-06-11T02:53:58.783Z,100.00
2018-06-11T02:56:26.994Z,100.00
2018-06-11T02:58:55.294Z,100.00
2018-06-11T03:01:23.630Z,100.00
2018-06-11T03:03:51.786Z,100.00
2018-06-11T03:06:19.959Z,100.00
2018-06-11T03:08:48.130Z,100.00
2018-06-11T03:11:16.409Z,100.00
2018-06-11T03:13:44.657Z,100.00
2018-06-11T03:16:13.059Z,100.00
2018-06-11T03:18:41.300Z,100.00
2018-06-11T03:21:09.673Z,100.00
2018-06-11T03:23:37.788Z,100.00
2018-06-11T03:26:06.014Z,100.00
2018-06-11T03:28:34.289Z,100.00
2018-06-11T03:31:02.357Z,100.00
2018-06-11T03:33:30.559Z,100.00
2018-06-11T03:35:59.070Z,100.00
2018-06-11T03:38:27.241Z,100.00
2018-06-11T03:40:55.460Z,100.00
2018-06-11T03:43:23.633Z,100.00
2018-06-11T03:45:51.749Z,100.00
2018-06-11T03:48:19.837Z,100.00
2018-06-11T03:50:48.047Z,100.00
2018-06-11T03:53:16.569Z,100.00
2018-06-11T03:55:44.721Z,100.00
2018-06-11T03:58:18.191Z,100.00
2018-06-11T04:00:46.447Z,100.00
2018-06-11T04:03:14.658Z,100.00
2018-06-11T04:05:42.887Z,100.00
2018-06-11T04:08:11.138Z,100.00
2018-06-11T04:10:39.592Z,100.00
2018-06-11T04:13:08.421Z,100.00
2018-06-11T04:15:37.146Z,100.00
2018-06-11T04:18:05.674Z,100.00
2018-06-11T04:20:33.915Z,100.00
2018-06-11T04:23:02.138Z,100.00
2018-06-11T04:25:30.419Z,100.00
2018-06-11T04:27:58.572Z,99.90
2018-06-11T04:30:26.768Z,100.00
2018-06-11T04:32:55.046Z,100.00
2018-06-11T04:35:23.536Z,100.00
2018-06-11T04:37:51.882Z,100.00
2018-06-11T04:40:20.666Z,100.00
2018-06-11T04:42:49.585Z,97.43
2018-06-11T04:45:17.935Z,98.86
2018-06-11T04:47:46.122Z,99.81
2018-06-11T04:50:15.072Z,100.00
2018-06-11T04:52:43.364Z,98.22
2018-06-11T04:55:11.647Z,98.47
2018-06-11T04:57:39.781Z,98.88
2018-06-11T05:00:07.980Z,98.29
2018-06-11T05:02:36.263Z,97.93
2018-06-11T05:05:04.431Z,96.17
2018-06-11T05:07:32.604Z,95.84
2018-06-11T05:10:01.000Z,94.34
2018-06-11T05:12:29.670Z,96.69
2018-06-11T05:14:57.842Z,95.74
2018-06-11T05:17:26.282Z,94.28
2018-06-11T05:19:54.430Z,92.80
2018-06-11T05:22:22.568Z,93.10
2018-06-11T05:24:51.447Z,94.74
2018-06-11T05:27:19.589Z,93.16
2018-06-11T05:29:48.854Z,93.20
2018-06-11T05:32:17.074Z,93.06
2018-06-11T05:34:45.277Z,91.39
2018-06-11T05:37:13.485Z,92.62
2018-06-11T05:39:41.630Z,92.30
2018-06-11T05:42:09.842Z,89.46
2018-06-11T05:44:38.283Z,86.01
2018-06-11T05:47:06.417Z,78.23
2018-06-11T05:49:34.616Z,71.69
2018-06-11T05:52:02.877Z,69.78
2018-06-11T05:54:31.049Z,66.99
2018-06-11T05:56:59.165Z,66.92
2018-06-11T05:59:27.846Z,66.89
2018-06-11T06:01:56.023Z,66.99
2018-06-11T06:04:24.387Z,64.52
2018-06-11T06:06:52.876Z,61.83
2018-06-11T06:09:21.088Z,62.46
2018-06-11T06:11:55.920Z,60.41
2018-06-11T06:14:24.861Z,64.26
2018-06-11T06:16:54.660Z,64.17
2018-06-11T06:19:23.263Z,61.21
2018-06-11T06:21:52.488Z,63.89
2018-06-11T06:24:21.038Z,64.45
2018-06-11T06:26:49.575Z,68.46
2018-06-11T06:29:18.083Z,63.94
2018-06-11T06:31:46.323Z,63.87
2018-06-11T06:34:14.966Z,64.41
2018-06-11T06:36:43.630Z,62.01
2018-06-11T06:39:12.713Z,61.02
2018-06-11T06:41:40.834Z,58.79
2018-06-11T06:44:09.118Z,61.33
2018-06-11T06:46:37.545Z,66.10
2018-06-11T06:49:05.693Z,64.15
2018-06-11T06:51:34.063Z,58.08
2018-06-11T06:54:02.390Z,52.69
2018-06-11T06:56:30.624Z,61.19
2018-06-11T06:58:58.926Z,60.35
2018-06-11T07:01:27.164Z,58.52
2018-06-11T07:03:55.329Z,61.90
2018-06-11T07:06:23.676Z,65.47
2018-06-11T07:08:51.948Z,59.00
2018-06-11T07:11:20.159Z,59.97
2018-06-11T07:13:48.255Z,60.73
2018-06-11T07:16:16.473Z,59.12
2018-06-11T07:18:44.694Z,63.34
2018-06-11T07:21:12.812Z,63.02
2018-06-11T07:23:40.989Z,67.07
2018-06-11T07:26:09.222Z,67.72
2018-06-11T07:28:37.535Z,69.50
2018-06-11T07:31:05.839Z,72.67
2018-06-11T07:33:34.045Z,72.89
2018-06-11T07:36:02.252Z,72.72
2018-06-11T07:38:30.482Z,75.59
2018-06-11T07:40:58.714Z,72.35
2018-06-11T07:43:26.838Z,72.75
2018-06-11T07:45:55.212Z,74.51
2018-06-11T07:48:23.353Z,78.03
2018-06-11T07:50:51.612Z,73.90
2018-06-11T07:53:19.657Z,72.86
2018-06-11T07:55:47.896Z,74.07
2018-06-11T07:58:15.986Z,72.88
2018-06-11T08:00:44.118Z,73.65
2018-06-11T08:03:12.459Z,74.18
2018-06-11T08:05:41.067Z,76.23
2018-06-11T08:08:09.411Z,72.48
2018-06-11T08:10:37.977Z,73.21
2018-06-11T08:13:06.165Z,71.99
2018-06-11T08:15:34.454Z,69.94
2018-06-11T08:18:02.707Z,71.95
2018-06-11T08:20:31.027Z,72.98
2018-06-11T08:22:59.241Z,71.65
2018-06-11T08:25:27.388Z,72.70
2018-06-11T08:27:55.617Z,75.43
2018-06-11T08:30:23.787Z,72.77
2018-06-11T08:32:51.917Z,68.56
2018-06-11T08:35:19.983Z,73.19
2018-06-11T08:37:48.218Z,69.11
2018-06-11T08:40:16.438Z,70.98
2018-06-11T08:42:44.626Z,69.69
2018-06-11T08:45:12.834Z,69.22
2018-06-11T08:47:41.558Z,69.37
2018-06-11T08:50:11.337Z,69.06
2018-06-11T08:52:39.961Z,70.65
2018-06-11T08:55:08.294Z,70.63
2018-06-11T08:57:36.517Z,68.35
2018-06-11T09:00:06.353Z,68.71
2018-06-11T09:02:34.647Z,66.90
2018-06-11T09:05:02.909Z,67.06
2018-06-11T09:07:31.066Z,67.54
2018-06-11T09:09:59.229Z,66.12
2018-06-11T09:12:27.395Z,67.73
2018-06-11T09:14:55.669Z,68.08
2018-06-11T09:17:23.835Z,66.28
2018-06-11T09:19:52.030Z,66.82
2018-06-11T09:22:20.282Z,66.25
2018-06-11T09:24:48.358Z,68.02
2018-06-11T09:27:16.449Z,66.84
2018-06-11T09:29:44.812Z,65.66
2018-06-11T09:32:13.050Z,64.34
2018-06-11T09:34:41.282Z,63.84
2018-06-11T09:37:09.439Z,65.27
2018-06-11T09:39:37.834Z,64.89
2018-06-11T09:42:06.013Z,65.05
2018-06-11T09:44:34.239Z,62.39
2018-06-11T09:47:02.446Z,62.75
2018-06-11T09:49:30.630Z,65.25
2018-06-11T09:51:58.765Z,62.32
2018-06-11T09:54:26.982Z,61.40
2018-06-11T09:56:55.114Z,59.96
2018-06-11T09:59:23.313Z,58.89
2018-06-11T10:01:51.595Z,62.72
2018-06-11T10:04:19.927Z,62.15
2018-06-11T10:06:48.761Z,60.68
2018-06-11T10:09:17.107Z,63.26
2018-06-11T10:11:45.262Z,61.54
2018-06-11T10:14:13.441Z,61.96
2018-06-11T10:16:41.639Z,59.66
2018-06-11T10:19:09.882Z,61.45
2018-06-11T10:21:37.991Z,60.57
2018-06-11T10:24:06.486Z,61.63
2018-06-11T10:26:34.723Z,60.40
2018-06-11T10:29:03.068Z,60.99
2018-06-11T10:31:31.216Z,61.31
2018-06-11T10:33:59.409Z,61.04
2018-06-11T10:36:27.561Z,63.19
2018-06-11T10:38:55.812Z,62.60
2018-06-11T10:41:24.006Z,61.15
2018-06-11T10:43:52.473Z,59.90
2018-06-11T10:46:20.661Z,59.89
2018-06-11T10:48:48.746Z,58.88
2018-06-11T10:51:16.975Z,58.78
2018-06-11T10:53:45.148Z,62.12
2018-06-11T10:56:13.320Z,59.25
2018-06-11T10:58:41.620Z,59.81
2018-06-11T11:01:09.797Z,59.05
2018-06-11T11:03:37.877Z,58.37
2018-06-11T11:06:06.093Z,58.44
2018-06-11T11:08:34.263Z,58.12
2018-06-11T11:11:02.441Z,61.49
2018-06-11T11:13:30.612Z,59.86
2018-06-11T11:15:58.822Z,57.89
2018-06-11T11:18:27.014Z,58.00
2018-06-11T11:20:55.681Z,56.98
2018-06-11T11:23:23.993Z,58.64
2018-06-11T11:25:52.275Z,56.00
2018-06-11T11:28:20.471Z,56.32
2018-06-11T11:30:48.725Z,55.85
2018-06-11T11:33:16.922Z,54.50
2018-06-11T11:35:45.124Z,55.94
2018-06-11T11:38:13.354Z,57.39
2018-06-11T11:40:41.545Z,56.94
2018-06-11T11:43:09.741Z,55.46
2018-06-11T11:45:37.922Z,57.05
2018-06-11T11:48:06.092Z,55.46
2018-06-11T11:50:34.337Z,55.65
2018-06-11T11:53:02.579Z,56.02
2018-06-11T11:55:30.882Z,58.40
2018-06-11T11:57:59.412Z,58.69
2018-06-11T12:00:27.615Z,54.50
2018-06-11T12:02:55.829Z,56.92
2018-06-11T12:05:24.082Z,57.42
2018-06-11T12:07:52.418Z,56.17
2018-06-11T12:10:20.613Z,57.17
2018-06-11T12:12:48.805Z,58.14
2018-06-11T12:15:17.206Z,57.25
2018-06-11T12:17:45.438Z,56.34
2018-06-11T12:20:13.603Z,56.59
2018-06-11T12:22:41.755Z,55.34
2018-06-11T12:25:10.069Z,58.15
2018-06-11T12:27:38.317Z,57.33
2018-06-11T12:30:06.526Z,56.79
2018-06-11T12:32:34.729Z,57.47
2018-06-11T12:35:03.355Z,55.20
2018-06-11T12:37:33.385Z,53.81
2018-06-11T12:40:02.361Z,57.07
2018-06-11T12:42:30.642Z,54.07
2018-06-11T12:44:59.001Z,54.02
2018-06-11T12:47:27.242Z,54.03
2018-06-11T12:49:55.438Z,52.74
2018-06-11T12:52:23.687Z,53.52
2018-06-11T12:54:51.969Z,55.11
2018-06-11T12:57:20.747Z,54.03
2018-06-11T12:59:48.946Z,54.41
2018-06-11T13:02:17.102Z,53.47
2018-06-11T13:04:45.331Z,53.09
2018-06-11T13:07:13.562Z,52.41
2018-06-11T13:09:41.792Z,53.31
2018-06-11T13:12:09.848Z,53.61
2018-06-11T13:14:38.030Z,52.75
2018-06-11T13:17:07.195Z,49.50
2018-06-11T13:19:35.402Z,52.00
2018-06-11T13:22:04.105Z,49.71
2018-06-11T13:24:32.415Z,51.62
2018-06-11T13:27:00.546Z,50.69
2018-06-11T13:29:28.719Z,52.78
2018-06-11T13:31:57.095Z,53.53
2018-06-11T13:34:25.318Z,57.21
2018-06-11T13:36:53.389Z,57.51
2018-06-11T13:39:21.642Z,55.64
2018-06-11T13:41:49.751Z,56.62
2018-06-11T13:44:17.921Z,56.18
2018-06-11T13:46:46.413Z,57.90
2018-06-11T13:49:14.870Z,58.78
2018-06-11T13:51:43.079Z,57.97
2018-06-11T13:54:11.669Z,60.19
2018-06-11T13:56:40.103Z,60.18
2018-06-11T13:59:08.865Z,62.07
2018-06-11T14:01:37.088Z,61.37
2018-06-11T14:04:05.555Z,62.56
2018-06-11T14:06:33.870Z,62.25
2018-06-11T14:09:02.382Z,64.20
2018-06-11T14:11:30.626Z,61.43
2018-06-11T14:13:58.865Z,61.67
2018-06-11T14:16:27.410Z,63.04
2018-06-11T14:18:55.686Z,64.79
2018-06-11T14:21:24.063Z,64.19
2018-06-11T14:23:52.291Z,64.38
2018-06-11T14:26:20.508Z,64.41
2018-06-11T14:28:48.787Z,67.17
2018-06-11T14:31:17.246Z,68.32
2018-06-11T14:33:45.544Z,69.20
2018-06-11T14:36:13.981Z,67.26
2018-06-11T14:38:42.440Z,67.09
2018-06-11T14:41:11.263Z,67.59
2018-06-11T14:43:39.634Z,67.45
2018-06-11T14:46:08.359Z,68.71
2018-06-11T14:48:36.727Z,66.64
2018-06-11T14:51:04.959Z,66.42
2018-06-11T14:53:33.329Z,66.09
2018-06-11T14:56:01.753Z,65.58
2018-06-11T14:58:30.106Z,69.58
2018-06-11T15:00:58.482Z,70.32
2018-06-11T15:03:26.703Z,71.39
2018-06-11T15:05:55.093Z,72.03
2018-06-11T15:08:23.429Z,69.88
2018-06-11T15:10:51.896Z,72.49
2018-06-11T15:13:20.214Z,76.74
2018-06-11T15:15:48.504Z,80.26
2018-06-11T15:18:16.842Z,83.60
2018-06-11T15:20:45.082Z,84.98
2018-06-11T15:23:13.308Z,87.68
2018-06-11T15:25:41.594Z,85.04
2018-06-11T15:28:09.769Z,86.59
2018-06-11T15:30:38.066Z,87.00
2018-06-11T15:33:06.326Z,90.82
2018-06-11T15:35:34.756Z,92.83
2018-06-11T15:38:03.034Z,94.93
2018-06-11T15:40:31.316Z,96.72
2018-06-11T15:42:59.565Z,99.87
2018-06-11T15:45:27.867Z,97.14
2018-06-11T15:47:56.115Z,99.00
2018-06-11T15:50:24.277Z,97.30
2018-06-11T15:52:52.416Z,98.33
2018-06-11T15:55:27.505Z,97.98
2018-06-11T15:57:55.743Z,99.81
2018-06-11T16:00:24.050Z,100.00
2018-06-11T16:02:52.155Z,100.00
2018-06-11T16:05:20.881Z,97.09
2018-06-11T16:07:49.114Z,99.81
2018-06-11T16:10:17.309Z,100.00
2018-06-11T16:12:45.567Z,100.00
2018-06-11T16:15:13.732Z,100.00
2018-06-11T16:17:42.090Z,100.00
2018-06-11T16:20:10.414Z,100.00
2018-06-11T16:22:38.619Z,100.00
2018-06-11T16:25:06.827Z,100.00
2018-06-11T16:27:35.119Z,100.00
2018-06-11T16:30:03.447Z,100.00
2018-06-11T16:32:31.852Z,100.00
2018-06-11T16:35:00.260Z,100.00
2018-06-11T16:37:28.684Z,100.00
2018-06-11T16:39:57.010Z,100.00
2018-06-11T16:42:25.368Z,100.00
2018-06-11T16:44:53.642Z,100.00
2018-06-11T16:47:21.890Z,100.00
2018-06-11T16:49:50.238Z,100.00
2018-06-11T16:52:18.599Z,100.00
2018-06-11T16:54:47.118Z,100.00
2018-06-11T16:57:15.383Z,99.60
2018-06-11T16:59:43.683Z,100.00
2018-06-11T17:02:12.031Z,100.00
2018-06-11T17:04:40.721Z,100.00
2018-06-11T17:07:08.958Z,100.00
2018-06-11T17:09:37.526Z,100.00
2018-06-11T17:12:05.958Z,100.00
2018-06-11T17:14:34.387Z,100.00
2018-06-11T17:17:02.941Z,100.00
2018-06-11T17:19:31.233Z,100.00
2018-06-11T17:21:59.843Z,100.00
2018-06-11T17:24:28.203Z,100.00
2018-06-11T17:26:56.809Z,100.00
2018-06-11T17:29:25.172Z,100.00
2018-06-11T17:31:56.564Z,100.00
2018-06-11T17:34:25.381Z,100.00
2018-06-11T17:36:53.898Z,100.00
2018-06-11T17:39:22.261Z,100.00
2018-06-11T17:41:51.614Z,100.00
2018-06-11T17:44:19.737Z,100.00
2018-06-11T17:46:48.343Z,100.00
2018-06-11T17:49:16.726Z,100.00
2018-06-11T17:51:45.164Z,100.00
2018-06-11T17:54:13.485Z,100.00
2018-06-11T17:56:41.881Z,100.00
2018-06-11T17:59:10.078Z,100.00
2018-06-11T18:01:38.747Z,100.00
2018-06-11T18:04:07.235Z,99.57
2018-06-11T18:06:36.153Z,100.00
2018-06-11T18:09:07.822Z,99.42
2018-06-11T18:11:36.904Z,100.00
2018-06-11T18:14:05.914Z,100.00
2018-06-11T18:16:35.624Z,100.00
2018-06-11T18:19:03.944Z,100.00
2018-06-11T18:21:32.259Z,100.00
2018-06-11T18:24:00.661Z,100.00
2018-06-11T18:26:28.938Z,100.00
2018-06-11T18:28:57.282Z,100.00
2018-06-11T18:31:25.728Z,100.00
2018-06-11T18:33:53.964Z,100.00
2018-06-11T18:36:22.408Z,100.00
2018-06-11T18:38:50.717Z,99.38
2018-06-11T18:41:19.181Z,100.00
2018-06-11T18:43:47.648Z,100.00
2018-06-11T18:46:16.172Z,100.00
2018-06-11T18:48:44.560Z,100.00
2018-06-11T18:51:12.900Z,100.00
2018-06-11T18:53:41.229Z,100.00
2018-06-11T18:56:09.538Z,100.00
2018-06-11T18:58:38.089Z,100.00
2018-06-11T19:01:06.345Z,100.00
2018-06-11T19:03:35.085Z,100.00
2018-06-11T19:06:03.560Z,100.00
2018-06-11T19:08:32.676Z,100.00
2018-06-11T19:11:01.081Z,100.00
2018-06-11T19:13:29.432Z,100.00
2018-06-11T19:15:57.801Z,100.00
2018-06-11T19:18:26.155Z,100.00
2018-06-11T19:20:54.612Z,100.00
2018-06-11T19:23:22.920Z,100.00
2018-06-11T19:25:51.310Z,100.00
2018-06-11T19:28:19.769Z,100.00
2018-06-11T19:30:48.250Z,100.00
2018-06-11T19:33:16.679Z,100.00
2018-06-11T19:35:45.511Z,100.00
2018-06-11T19:38:13.797Z,100.00
2018-06-11T19:40:42.104Z,100.00
2018-06-11T19:43:10.434Z,100.00
2018-06-11T19:45:38.757Z,100.00
2018-06-11T19:48:06.991Z,100.00
2018-06-11T19:50:35.217Z,100.00
2018-06-11T19:53:03.607Z,100.00
2018-06-11T19:55:31.931Z,100.00
2018-06-11T19:58:00.146Z,100.00
2018-06-11T20:00:28.473Z,100.00
2018-06-11T20:02:56.663Z,100.00
2018-06-11T20:05:24.883Z,100.00
2018-06-11T20:07:53.091Z,100.00
2018-06-11T20:10:21.340Z,100.00
2018-06-11T20:12:49.594Z,100.00
2018-06-11T20:15:17.780Z,100.00
2018-06-11T20:17:46.069Z,100.00
2018-06-11T20:20:14.627Z,100.00
2018-06-11T20:22:43.282Z,100.00
2018-06-11T20:25:11.508Z,100.00
2018-06-11T20:27:39.728Z,100.00
2018-06-11T20:30:07.975Z,100.00
2018-06-11T20:32:36.175Z,100.00
2018-06-11T20:35:04.456Z,100.00
2018-06-11T20:37:32.815Z,100.00
2018-06-11T20:40:01.164Z,100.00
2018-06-11T20:42:29.561Z,100.00
2018-06-11T20:44:57.814Z,100.00
2018-06-11T20:47:26.210Z,100.00
2018-06-11T20:49:54.545Z,100.00
2018-06-11T20:52:22.930Z,100.00
2018-06-11T20:54:51.277Z,100.00
2018-06-11T20:57:19.497Z,100.00
2018-06-11T20:59:47.715Z,100.00
2018-06-11T21:02:15.970Z,100.00
2018-06-11T21:04:44.629Z,100.00
2018-06-11T21:07:12.986Z,100.00
2018-06-11T21:09:41.307Z,100.00
2018-06-11T21:12:09.441Z,100.00
2018-06-11T21:14:37.516Z,100.00
2018-06-11T21:17:05.938Z,100.00
2018-06-11T21:19:34.218Z,100.00
2018-06-11T21:22:02.422Z,100.00
2018-06-11T21:24:30.698Z,100.00
2018-06-11T21:26:59.134Z,100.00
2018-06-11T21:29:27.393Z,100.00
2018-06-11T21:31:55.714Z,100.00
2018-06-11T21:34:23.968Z,100.00
2018-06-11T21:36:52.085Z,100.00
2018-06-11T21:39:20.382Z,100.00
2018-06-11T21:41:49.147Z,100.00
2018-06-11T21:44:17.326Z,100.00
2018-06-11T21:46:45.579Z,100.00
2018-06-11T21:49:13.922Z,100.00
2018-06-11T21:51:42.305Z,100.00
2018-06-11T21:54:10.550Z,100.00
2018-06-11T21:56:38.925Z,100.00
2018-06-11T21:59:07.213Z,100.00
2018-06-11T22:01:35.354Z,100.00
2018-06-11T22:04:03.739Z,100.00
2018-06-11T22:06:31.778Z,100.00
2018-06-11T22:09:00.035Z,100.00
2018-06-11T22:11:28.171Z,100.00
2018-06-11T22:13:56.376Z,100.00
2018-06-11T22:16:24.494Z,100.00
2018-06-11T22:18:52.849Z,100.00
2018-06-11T22:21:20.976Z,100.00
2018-06-11T22:23:49.081Z,100.00
2018-06-11T22:26:17.477Z,100.00
2018-06-11T22:28:45.659Z,100.00
2018-06-11T22:31:13.910Z,100.00
2018-06-11T22:33:42.265Z,100.00
2018-06-11T22:36:10.615Z,100.00
2018-06-11T22:38:38.745Z,100.00
2018-06-11T22:41:07.093Z,100.00
2018-06-11T22:43:35.306Z,100.00
2018-06-11T22:46:03.495Z,100.00
2018-06-11T22:48:31.614Z,100.00
2018-06-11T22:50:59.797Z,100.00
2018-06-11T22:53:27.929Z,100.00
2018-06-11T22:55:56.106Z,100.00
2018-06-11T22:58:24.241Z,100.00
2018-06-11T23:00:52.366Z,100.00
2018-06-11T23:03:20.430Z,100.00
2018-06-11T23:05:53.593Z,100.00
2018-06-11T23:08:21.680Z,100.00
2018-06-11T23:10:49.838Z,100.00
2018-06-11T23:13:17.934Z,100.00
2018-06-11T23:15:46.050Z,100.00
2018-06-11T23:18:14.222Z,100.00
2018-06-11T23:20:42.417Z,100.00
2018-06-11T23:23:10.596Z,100.00
2018-06-11T23:25:45.684Z,100.00
2018-06-11T23:28:13.957Z,100.00
2018-06-11T23:30:42.161Z,100.00
2018-06-11T23:33:10.461Z,100.00
2018-06-11T23:35:38.739Z,100.00
2018-06-11T23:38:06.898Z,100.00
2018-06-11T23:40:35.102Z,100.00
2018-06-11T23:43:03.236Z,100.00
2018-06-11T23:45:31.341Z,100.00
2018-06-11T23:48:00.098Z,100.00
2018-06-11T23:50:28.229Z,100.00
2018-06-11T23:52:56.810Z,100.00
2018-06-11T23:55:25.024Z,100.00
2018-06-11T23:57:53.365Z,100.00
